Time;durP1;ratioP1;P1;durP2;ratioP2;P2;SDS_P1;SDS_P2;PMS_P1;PMS_P2;Temp;Humidity;BMP_temperature;BMP_pressure;BME280_temperature;BME280_humidity;BME280_pressure;Samples;Min_cycle;Max_cycle;Signal;HPM_P1;HPM_P2
2021/06/15 00:01:01;;;;;;;4.22;1.42;;;12.10;99.90;;;;;;5076791;28;20063;-81
2021/06/15 00:03:29;;;;;;;3.15;1.25;;;12.00;99.90;;;;;;5077004;28;20041;-82
2021/06/15 00:05:56;;;;;;;6.57;1.92;;;12.00;99.90;;;;;;5077072;28;20059;-83
2021/06/15 00:08:23;;;;;;;5.03;1.48;;;12.00;99.90;;;;;;5076892;28;20044;-83
2021/06/15 00:10:50;;;;;;;3.55;1.90;;;11.90;99.90;;;;;;5076703;28;20045;-82
2021/06/15 00:13:17;;;;;;;6.53;1.65;;;11.90;99.90;;;;;;5076829;28;20045;-83
2021/06/15 00:15:47;;;;;;;7.53;1.92;;;11.90;99.90;;;;;;5076674;28;20044;-83
2021/06/15 00:18:15;;;;;;;4.93;1.20;;;11.90;99.90;;;;;;5076710;28;20076;-83
2021/06/15 00:20:42;;;;;;;4.80;1.42;;;11.90;99.90;;;;;;5076507;28;20048;-83
2021/06/15 00:23:09;;;;;;;15.05;1.75;;;12.00;99.90;;;;;;5076136;28;20044;-81
2021/06/15 00:25:37;;;;;;;3.47;1.52;;;12.00;99.90;;;;;;5076266;28;20059;-82
2021/06/15 00:28:05;;;;;;;5.75;1.42;;;12.00;99.90;;;;;;5076462;28;20380;-83
2021/06/15 00:30:32;;;;;;;2.40;1.17;;;12.00;99.90;;;;;;5076237;28;20053;-82
2021/06/15 00:33:00;;;;;;;9.63;2.15;;;12.00;99.90;;;;;;5076430;28;20040;-83
2021/06/15 00:35:27;;;;;;;4.68;1.40;;;12.10;99.90;;;;;;5076388;28;20049;-82
2021/06/15 00:37:54;;;;;;;3.88;1.73;;;12.10;99.90;;;;;;5076180;28;20075;-82
2021/06/15 00:40:22;;;;;;;6.00;1.70;;;12.10;99.90;;;;;;5075949;28;20049;-83
2021/06/15 00:42:49;;;;;;;3.20;1.33;;;12.00;99.90;;;;;;5075966;28;20058;-82
2021/06/15 00:45:17;;;;;;;7.28;2.55;;;12.00;99.90;;;;;;5076221;28;20044;-83
2021/06/15 00:47:47;;;;;;;8.40;1.70;;;12.00;99.90;;;;;;5076171;28;20049;-81
2021/06/15 00:50:15;;;;;;;5.88;1.67;;;12.10;99.90;;;;;;5075392;28;20424;-81
2021/06/15 00:52:42;;;;;;;4.93;1.48;;;12.10;99.90;;;;;;5075715;28;20508;-83
2021/06/15 00:55:10;;;;;;;4.82;1.80;;;12.10;99.90;;;;;;5076160;28;20052;-83
2021/06/15 00:57:37;;;;;;;5.72;1.50;;;12.10;99.90;;;;;;5076156;28;20044;-83
2021/06/15 01:00:05;;;;;;;3.78;1.40;;;12.10;99.90;;;;;;5075885;28;20067;-82
2021/06/15 01:02:32;;;;;;;5.57;1.80;;;12.10;99.90;;;;;;5075763;28;20048;-81
2021/06/15 01:05:00;;;;;;;2.38;1.13;;;12.00;99.90;;;;;;5075652;28;20044;-83
2021/06/15 01:07:30;;;;;;;6.13;2.13;;;12.00;99.90;;;;;;5075870;28;20053;-83
2021/06/15 01:10:01;;;;;;;5.85;1.23;;;12.00;99.90;;;;;;5076074;28;20044;-82
2021/06/15 01:12:38;;;;;;;5.47;1.67;;;12.00;99.90;;;;;;5075701;28;20059;-83
2021/06/15 01:15:09;;;;;;;8.68;2.10;;;12.10;99.90;;;;;;5075666;28;20041;-82
2021/06/15 01:17:38;;;;;;;7.80;2.03;;;12.10;99.90;;;;;;5076087;28;20052;-81
2021/06/15 01:20:09;;;;;;;5.18;1.90;;;12.20;99.90;;;;;;5075341;28;20044;-83
2021/06/15 01:23:16;;;;;;;5.25;1.45;;;12.20;99.90;;;;;;5075459;28;20048;-83
2021/06/15 01:26:02;;;;;;;8.13;1.70;;;12.20;99.90;;;;;;5075308;28;20048;-81
2021/06/15 01:28:32;;;;;;;3.17;1.00;;;12.20;99.90;;;;;;5074765;28;20048;-82
2021/06/15 01:31:00;;;;;;;3.17;1.50;;;12.20;99.90;;;;;;5075164;28;20048;-83
2021/06/15 01:33:27;;;;;;;3.03;1.10;;;12.20;99.90;;;;;;5075106;28;20084;-83
2021/06/15 01:35:54;;;;;;;4.28;1.52;;;12.10;99.90;;;;;;5075170;28;20052;-83
2021/06/15 01:38:24;;;;;;;9.05;1.75;;;12.10;99.90;;;;;;5075152;28;20056;-82
2021/06/15 01:40:53;;;;;;;3.08;1.75;;;12.10;99.90;;;;;;5075043;28;20063;-81
2021/06/15 01:43:24;;;;;;;4.18;1.38;;;12.10;99.90;;;;;;5075008;28;20445;-82
2021/06/15 01:45:53;;;;;;;3.95;1.40;;;12.10;99.90;;;;;;5075203;28;20067;-82
2021/06/15 01:48:25;;;;;;;5.57;1.95;;;12.10;99.90;;;;;;5075073;28;20216;-83
2021/06/15 01:50:52;;;;;;;8.32;1.73;;;12.10;99.90;;;;;;5074869;28;20056;-83
2021/06/15 01:53:20;;;;;;;2.45;1.40;;;12.10;99.90;;;;;;5074907;28;20071;-82
2021/06/15 01:55:49;;;;;;;9.35;1.85;;;12.00;99.90;;;;;;5074938;28;20075;-83
2021/06/15 01:58:16;;;;;;;5.13;1.25;;;12.00;99.90;;;;;;5074834;28;20185;-83
2021/06/15 02:00:43;;;;;;;5.38;1.40;;;11.90;99.90;;;;;;5074674;28;20062;-83
2021/06/15 02:03:12;;;;;;;8.40;2.17;;;11.90;99.90;;;;;;5074817;28;20376;-83
2021/06/15 02:05:41;;;;;;;2.88;1.77;;;12.00;99.90;;;;;;5073977;28;20048;-81
2021/06/15 02:08:08;;;;;;;5.68;1.38;;;12.00;99.90;;;;;;5074850;28;20053;-82
2021/06/15 02:10:36;;;;;;;6.25;1.33;;;12.00;99.90;;;;;;5074920;28;20058;-83
2021/06/15 02:13:03;;;;;;;4.55;1.70;;;12.00;99.90;;;;;;5074515;28;20064;-81
2021/06/15 02:15:30;;;;;;;6.82;1.77;;;12.10;99.90;;;;;;5074747;28;20063;-82
2021/06/15 02:17:57;;;;;;;6.25;1.90;;;12.10;99.90;;;;;;5074839;28;20049;-82
2021/06/15 02:20:28;;;;;;;5.63;1.35;;;12.10;99.90;;;;;;5074881;28;20045;-82
2021/06/15 02:22:56;;;;;;;4.90;1.33;;;12.10;99.90;;;;;;5074816;28;20049;-81
2021/06/15 02:25:25;;;;;;;10.63;1.77;;;12.10;99.90;;;;;;5074726;28;20067;-82
2021/06/15 02:27:52;;;;;;;6.20;1.42;;;12.20;99.90;;;;;;5074734;28;20048;-82
2021/06/15 02:30:20;;;;;;;7.47;1.35;;;12.10;99.90;;;;;;5074729;28;20052;-82
2021/06/15 02:32:47;;;;;;;9.27;1.80;;;12.20;99.90;;;;;;5074593;28;20049;-83
2021/06/15 02:35:14;;;;;;;3.95;1.65;;;12.10;99.90;;;;;;5074658;28;20048;-83
2021/06/15 02:37:46;;;;;;;7.78;2.10;;;12.10;99.90;;;;;;5074443;28;20052;-82
2021/06/15 02:40:14;;;;;;;7.28;1.70;;;12.10;99.90;;;;;;5074791;28;20053;-81
2021/06/15 02:42:42;;;;;;;4.43;1.50;;;12.00;99.90;;;;;;5074299;28;20052;-82
2021/06/15 02:45:10;;;;;;;7.18;1.70;;;12.00;99.90;;;;;;5074485;28;20056;-83
2021/06/15 02:47:37;;;;;;;3.92;1.45;;;11.90;99.90;;;;;;5074217;28;20055;-81
2021/06/15 02:50:06;;;;;;;4.63;1.38;;;11.90;99.90;;;;;;5074505;28;20048;-82
2021/06/15 02:52:36;;;;;;;1.95;1.50;;;11.90;99.90;;;;;;5074443;28;20075;-83
2021/06/15 02:55:08;;;;;;;4.53;1.63;;;11.90;99.90;;;;;;5074575;28;20041;-82
2021/06/15 02:57:35;;;;;;;3.58;1.30;;;11.90;99.90;;;;;;5074573;28;20052;-81
2021/06/15 03:00:03;;;;;;;4.22;1.55;;;11.90;99.90;;;;;;5073969;28;20056;-81
2021/06/15 03:02:30;;;;;;;9.23;1.60;;;11.90;99.90;;;;;;5074285;28;20059;-81
2021/06/15 03:04:57;;;;;;;9.60;1.88;;;11.90;99.90;;;;;;5074194;28;20040;-81
2021/06/15 03:07:24;;;;;;;5.60;1.58;;;11.90;99.90;;;;;;5073990;28;20082;-82
2021/06/15 03:09:51;;;;;;;8.23;1.25;;;11.90;99.90;;;;;;5074191;28;20052;-82
2021/06/15 03:12:21;;;;;;;3.95;1.38;;;11.80;99.90;;;;;;5074128;28;20059;-82
2021/06/15 03:14:51;;;;;;;2.65;1.30;;;11.80;99.90;;;;;;5074224;28;20048;-81
2021/06/15 03:17:18;;;;;;;8.38;1.40;;;11.80;99.90;;;;;;5077599;28;20059;-81
2021/06/15 03:19:48;;;;;;;3.50;1.27;;;11.80;99.90;;;;;;5077851;28;20048;-82
2021/06/15 03:22:16;;;;;;;7.57;1.65;;;11.70;99.90;;;;;;5077656;28;20062;-83
2021/06/15 03:24:45;;;;;;;7.05;1.70;;;11.80;99.90;;;;;;5077475;28;20465;-83
2021/06/15 03:27:14;;;;;;;2.85;1.40;;;11.70;99.90;;;;;;5077704;28;20049;-82
2021/06/15 03:29:43;;;;;;;4.82;1.40;;;11.80;99.90;;;;;;5077707;28;20049;-82
2021/06/15 03:32:12;;;;;;;6.05;1.52;;;11.80;99.90;;;;;;5077389;28;20056;-82
2021/06/15 03:34:42;;;;;;;3.67;1.83;;;11.80;99.90;;;;;;5077602;28;20054;-82
2021/06/15 03:37:10;;;;;;;6.07;1.88;;;11.80;99.90;;;;;;5077548;28;20056;-82
2021/06/15 03:39:37;;;;;;;3.80;1.25;;;11.80;99.90;;;;;;5077384;28;20063;-81
2021/06/15 03:42:04;;;;;;;5.97;1.88;;;11.80;99.90;;;;;;5077604;28;20048;-82
2021/06/15 03:44:32;;;;;;;5.07;1.25;;;11.70;99.90;;;;;;5077156;28;20381;-80
2021/06/15 03:47:00;;;;;;;3.40;1.90;;;11.70;99.90;;;;;;5077079;28;20045;-81
2021/06/15 03:49:28;;;;;;;7.95;1.77;;;11.70;99.90;;;;;;5077321;28;20052;-82
2021/06/15 03:51:55;;;;;;;6.78;1.38;;;11.70;99.90;;;;;;5077341;28;20056;-80
2021/06/15 03:54:22;;;;;;;5.43;1.48;;;11.60;99.90;;;;;;5077316;28;20369;-81
2021/06/15 03:56:50;;;;;;;7.00;1.85;;;11.60;99.90;;;;;;5077203;28;20048;-82
2021/06/15 03:59:19;;;;;;;3.75;1.67;;;11.60;99.90;;;;;;5076788;28;20472;-81
2021/06/15 04:01:46;;;;;;;5.18;1.77;;;11.70;99.90;;;;;;5077194;28;20075;-82
2021/06/15 04:04:16;;;;;;;8.57;1.75;;;11.70;99.90;;;;;;5076961;28;20048;-82
2021/06/15 04:06:49;;;;;;;5.43;1.48;;;11.70;99.90;;;;;;5077120;28;20109;-82
2021/06/15 04:09:16;;;;;;;7.35;1.95;;;11.80;99.90;;;;;;5077045;28;20435;-82
2021/06/15 04:11:43;;;;;;;7.72;1.98;;;11.90;99.90;;;;;;5076952;28;20377;-82
2021/06/15 04:14:11;;;;;;;3.10;1.70;;;11.90;99.90;;;;;;5076842;28;20051;-83
2021/06/15 04:16:38;;;;;;;4.75;1.63;;;11.90;99.90;;;;;;5076777;28;20045;-82
2021/06/15 04:19:06;;;;;;;3.33;1.63;;;12.00;99.90;;;;;;5076988;28;20048;-82
2021/06/15 04:21:35;;;;;;;6.57;2.55;;;11.90;99.90;;;;;;5076532;28;20052;-81
2021/06/15 04:24:03;;;;;;;3.17;2.03;;;12.00;99.90;;;;;;5076419;28;20198;-82
2021/06/15 04:26:32;;;;;;;5.32;1.30;;;12.00;99.90;;;;;;5076851;28;20044;-83
2021/06/15 04:28:59;;;;;;;3.45;1.65;;;12.00;99.90;;;;;;5076012;28;20052;-82
2021/06/15 04:31:26;;;;;;;8.27;1.52;;;12.00;99.90;;;;;;5076479;28;20059;-83
2021/06/15 04:33:53;;;;;;;6.45;1.40;;;12.00;99.90;;;;;;5076380;28;20049;-82
2021/06/15 04:36:20;;;;;;;5.05;1.55;;;12.00;99.90;;;;;;5076262;28;20067;-82
2021/06/15 04:38:52;;;;;;;9.07;2.33;;;11.90;99.90;;;;;;5076385;28;20045;-82
2021/06/15 04:41:20;;;;;;;3.97;1.75;;;11.90;99.90;;;;;;5076117;28;20048;-81
2021/06/15 04:43:49;;;;;;;4.25;1.58;;;12.00;99.90;;;;;;5076110;28;20053;-83
2021/06/15 04:46:20;;;;;;;4.65;1.83;;;12.00;99.90;;;;;;5076104;28;20044;-83
2021/06/15 04:48:49;;;;;;;4.88;2.03;;;12.10;99.90;;;;;;5076056;28;20053;-83
2021/06/15 04:51:17;;;;;;;3.72;1.50;;;12.10;99.90;;;;;;5076010;28;20049;-83
2021/06/15 04:53:44;;;;;;;;;;;12.20;99.90;;;;;;5076330;28;20098;-83
2021/06/15 04:56:13;;;;;;;;;;;12.20;99.90;;;;;;5076214;28;19994;-82
2021/06/15 04:58:40;;;;;;;;;;;12.20;99.90;;;;;;5076408;28;19981;-81
2021/06/15 05:01:06;;;;;;;;;;;12.20;99.90;;;;;;5076359;28;20006;-83
2021/06/15 05:03:33;;;;;;;;;;;12.30;99.90;;;;;;5076188;28;19925;-83
2021/06/15 05:06:03;;;;;;;;;;;12.30;99.90;;;;;;5076031;28;19925;-81
2021/06/15 05:08:30;;;;;;;;;;;12.30;99.90;;;;;;5075928;28;19982;-82
2021/06/15 05:10:58;;;;;;;;;;;12.40;99.90;;;;;;5076238;28;19935;-83
2021/06/15 05:13:27;;;;;;;;;;;12.40;99.90;;;;;;5076096;28;20043;-82
2021/06/15 05:15:53;;;;;;;;;;;12.40;99.90;;;;;;5076041;28;19925;-83
2021/06/15 05:18:22;;;;;;;;;;;12.40;99.90;;;;;;5075910;28;19936;-83
2021/06/15 05:20:49;;;;;;;;;;;12.40;99.90;;;;;;5075766;28;19943;-83
2021/06/15 05:23:16;;;;;;;;;;;12.40;99.90;;;;;;5075785;28;20374;-81
2021/06/15 05:25:43;;;;;;;;;;;12.40;99.90;;;;;;5076095;28;19929;-83
2021/06/15 05:28:10;;;;;;;;;;;12.50;99.90;;;;;;5075680;28;20379;-82
2021/06/15 05:30:39;;;;;;;;;;;12.50;99.90;;;;;;5075557;28;19928;-81
2021/06/15 05:33:06;;;;;;;;;;;12.50;99.90;;;;;;5075787;28;20001;-81
2021/06/15 05:35:33;;;;;;;;;;;12.60;99.90;;;;;;5075542;28;19928;-81
2021/06/15 05:37:59;;;;;;;;;;;12.70;99.90;;;;;;5075553;28;19924;-82
2021/06/15 05:40:26;;;;;;;;;;;12.70;99.90;;;;;;5074847;28;19924;-81
2021/06/15 05:42:53;;;;;;;;;;;12.80;99.90;;;;;;5075517;28;19935;-83
2021/06/15 05:45:20;;;;;;;;;;;12.90;99.90;;;;;;5075445;28;19950;-83
2021/06/15 05:47:48;;;;;;;;;;;12.90;99.90;;;;;;5075431;28;20367;-82
2021/06/15 05:50:15;;;;;;;;;;;12.90;99.90;;;;;;5075312;28;19924;-83
2021/06/15 05:52:42;;;;;;;;;;;12.90;99.90;;;;;;5075235;28;19932;-82
2021/06/15 05:55:11;;;;;;;;;;;12.90;99.90;;;;;;5075413;28;19928;-82
2021/06/15 05:57:38;;;;;;;;;;;12.80;99.90;;;;;;5075233;28;19978;-82
2021/06/15 06:00:06;;;;;;;;;;;12.80;99.90;;;;;;5075053;28;20371;-83
2021/06/15 06:02:33;;;;;;;;;;;12.90;99.90;;;;;;5075172;28;19936;-81
2021/06/15 06:08:04;;;;;;;;;;;12.90;99.90;;;;;;5075253;28;19928;-81
2021/06/15 06:08:09;;;;;;;;;;;12.90;99.90;;;;;;5075138;28;19990;-82
2021/06/15 06:10:37;;;;;;;;;;;13.00;99.90;;;;;;5075150;28;19921;-83
2021/06/15 06:13:06;;;;;;;;;;;13.00;99.90;;;;;;5075089;28;20278;-81
2021/06/15 06:15:33;;;;;;;;;;;13.00;99.90;;;;;;5075006;28;19932;-81
2021/06/15 06:18:02;;;;;;;;;;;13.10;99.90;;;;;;5075251;28;19924;-83
2021/06/15 06:20:31;;;;;;;;;;;13.10;99.90;;;;;;5075128;28;19931;-81
2021/06/15 06:22:58;;;;;;;;;;;13.10;99.90;;;;;;5075265;28;19935;-81
2021/06/15 06:25:25;;;;;;;;;;;13.20;99.90;;;;;;5074858;28;19989;-82
2021/06/15 06:27:52;;;;;;;;;;;13.30;99.90;;;;;;5074926;28;19924;-81
2021/06/15 06:30:20;;;;;;;;;;;13.30;99.90;;;;;;5074874;28;19925;-82
2021/06/15 06:32:47;;;;;;;;;;;13.40;99.90;;;;;;5075176;28;19924;-82
2021/06/15 06:35:13;;;;;;;;;;;13.50;99.90;;;;;;5074977;28;19925;-83
2021/06/15 06:37:42;;;;;;;;;;;13.50;99.90;;;;;;5074869;28;19924;-82
2021/06/15 06:40:10;;;;;;;;;;;13.50;99.90;;;;;;5074744;28;19997;-82
2021/06/15 06:42:36;;;;;;;;;;;13.60;99.90;;;;;;5074749;28;20276;-82
2021/06/15 06:45:04;;;;;;;;;;;13.60;99.90;;;;;;5074610;28;19928;-82
2021/06/15 06:47:30;;;;;;;;;;;13.70;99.90;;;;;;5074899;28;20352;-83
2021/06/15 06:49:57;;;;;;;;;;;13.80;99.90;;;;;;5074714;28;19924;-81
2021/06/15 06:52:24;;;;;;;;;;;13.90;99.90;;;;;;5078772;28;19924;-83
2021/06/15 06:54:52;;;;;;;;;;;14.40;99.90;;;;;;5078677;28;19947;-83
2021/06/15 06:57:19;;;;;;;;;;;15.00;99.90;;;;;;5078607;28;19936;-81
2021/06/15 06:59:46;;;;;;;;;;;15.40;99.90;;;;;;5078519;28;19924;-81
2021/06/15 07:02:13;;;;;;;;;;;15.80;99.90;;;;;;5078421;28;19928;-81
2021/06/15 07:04:40;;;;;;;;;;;16.00;99.90;;;;;;5078332;28;19940;-81
2021/06/15 07:07:06;;;;;;;;;;;16.30;99.90;;;;;;5078444;28;19936;-80
2021/06/15 07:09:33;;;;;;;;;;;16.90;99.90;;;;;;5078669;28;20237;-81
2021/06/15 07:12:02;;;;;;;6.88;1.48;;;17.80;99.90;;;;;;5078072;28;19925;-80
2021/06/15 07:14:29;;;;;;;6.18;1.35;;;19.20;99.90;;;;;;5077932;28;20048;-81
2021/06/15 07:16:56;;;;;;;11.80;2.78;;;20.80;99.90;;;;;;5077735;28;20574;-80
2021/06/15 07:19:23;;;;;;;6.72;2.55;;;22.00;99.00;;;;;;5077983;28;20480;-80
2021/06/15 07:21:51;;;;;;;4.07;1.55;;;22.80;96.70;;;;;;5078198;28;20048;-80
2021/06/15 07:24:18;;;;;;;5.55;1.70;;;23.70;94.20;;;;;;5077711;28;20058;-81
2021/06/15 07:26:45;;;;;;;7.97;1.50;;;24.80;90.80;;;;;;5077801;28;20055;-81
2021/06/15 07:29:13;;;;;;;3.92;1.77;;;25.90;94.20;;;;;;5077805;28;20139;-80
2021/06/15 07:31:40;;;;;;;3.58;1.98;;;27.10;78.40;;;;;;5077574;28;20059;-81
2021/06/15 07:34:07;;;;;;;4.43;1.40;;;28.00;60.80;;;;;;5077433;28;20473;-80
2021/06/15 07:36:34;;;;;;;3.22;1.27;;;28.90;64.20;;;;;;5077368;28;20378;-81
2021/06/15 07:39:01;;;;;;;3.55;1.67;;;29.30;57.50;;;;;;5077412;28;20056;-81
2021/06/15 07:41:28;;;;;;;4.38;1.63;;;29.70;55.10;;;;;;5077518;28;20087;-81
2021/06/15 07:43:56;;;;;;;4.20;1.50;;;29.70;57.00;;;;;;5077192;28;20059;-81
2021/06/15 07:46:24;;;;;;;4.75;1.73;;;29.40;52.70;;;;;;5077073;28;20453;-81
2021/06/15 07:48:53;;;;;;;5.90;1.85;;;29.20;56.30;;;;;;5077252;28;20475;-81
2021/06/15 07:51:20;;;;;;;2.70;1.40;;;29.40;52.90;;;;;;5076951;28;20052;-81
2021/06/15 07:53:47;;;;;;;4.57;1.25;;;29.20;53.20;;;;;;5077276;28;20070;-81
2021/06/15 07:56:14;;;;;;;4.38;1.10;;;29.30;54.60;;;;;;5077129;28;20396;-81
2021/06/15 07:58:41;;;;;;;2.65;1.30;;;29.50;51.80;;;;;;5076554;28;20049;-81
2021/06/15 08:01:09;;;;;;;2.90;0.98;;;29.30;51.10;;;;;;5077051;28;20059;-81
2021/06/15 08:03:37;;;;;;;3.88;1.20;;;29.40;54.20;;;;;;5058465;28;20128;-81
2021/06/15 08:06:04;;;;;;;3.45;1.50;;;30.20;52.60;;;;;;5076852;28;20052;-81
2021/06/15 08:08:31;;;;;;;2.92;1.40;;;30.60;50.00;;;;;;5076780;28;20048;-81
2021/06/15 08:10:59;;;;;;;4.53;0.90;;;31.00;50.20;;;;;;5076699;28;20048;-81
2021/06/15 08:13:27;;;;;;;3.50;1.35;;;30.80;48.40;;;;;;5076636;28;20457;-81
2021/06/15 08:15:54;;;;;;;3.90;0.85;;;30.80;50.10;;;;;;5076733;28;20491;-81
2021/06/15 08:18:21;;;;;;;4.00;1.30;;;31.40;50.20;;;;;;5076768;28;20067;-81
2021/06/15 08:20:51;;;;;;;2.70;0.90;;;32.10;48.40;;;;;;5086546;28;20052;-82
2021/06/15 08:23:18;;;;;;;4.57;1.45;;;32.10;45.30;;;;;;5095442;28;20048;-82
2021/06/15 08:25:45;;;;;;;2.92;0.93;;;31.60;46.20;;;;;;5096637;28;20044;-82
2021/06/15 08:28:12;;;;;;;3.08;1.25;;;30.70;47.80;;;;;;5096490;28;20501;-82
2021/06/15 08:30:39;;;;;;;2.72;0.70;;;30.10;48.60;;;;;;5096918;28;20077;-82
2021/06/15 08:33:06;;;;;;;4.57;0.75;;;29.90;47.90;;;;;;5096883;28;20058;-81
2021/06/15 08:35:33;;;;;;;3.17;0.95;;;29.90;48.50;;;;;;5096688;28;20044;-82
2021/06/15 08:38:02;;;;;;;1.70;0.65;;;29.60;48.10;;;;;;5096673;28;20044;-82
2021/06/15 08:40:29;;;;;;;1.58;0.50;;;29.00;49.10;;;;;;5096587;28;20056;-82
2021/06/15 08:42:56;;;;;;;2.45;0.28;;;29.40;48.10;;;;;;5096359;28;20048;-82
2021/06/15 08:45:24;;;;;;;3.85;0.70;;;30.00;45.90;;;;;;5096213;28;20055;-82
2021/06/15 08:47:52;;;;;;;2.60;0.38;;;29.90;45.80;;;;;;5096351;28;20052;-82
2021/06/15 08:50:21;;;;;;;2.47;0.80;;;29.00;46.60;;;;;;5096364;28;20054;-82
2021/06/15 08:52:48;;;;;;;3.70;0.77;;;27.40;48.20;;;;;;5096251;28;20052;-81
2021/06/15 08:55:17;;;;;;;3.13;0.80;;;25.90;51.40;;;;;;5096484;28;20083;-82
2021/06/15 08:57:49;;;;;;;5.45;1.33;;;24.60;54.00;;;;;;5096070;28;20044;-81
2021/06/15 09:00:17;;;;;;;2.88;1.00;;;23.70;54.80;;;;;;5096219;28;20083;-81
2021/06/15 09:02:45;;;;;;;1.20;0.70;;;23.00;57.00;;;;;;5096219;28;20062;-82
2021/06/15 09:05:14;;;;;;;5.75;0.80;;;22.20;57.90;;;;;;5096016;28;20368;-82
2021/06/15 09:08:01;;;;;;;1.75;0.93;;;21.80;58.60;;;;;;5095739;28;20162;-81
2021/06/15 09:10:30;;;;;;;4.05;0.82;;;21.20;59.90;;;;;;5095809;28;20418;-81
2021/06/15 09:12:58;;;;;;;2.40;1.20;;;20.80;60.70;;;;;;5096048;28;20058;-81
2021/06/15 09:15:25;;;;;;;2.00;0.40;;;20.40;62.80;;;;;;5095800;28;20070;-81
2021/06/15 09:17:52;;;;;;;3.72;1.85;;;20.10;65.10;;;;;;5095554;28;20048;-81
2021/06/15 09:20:20;;;;;;;2.15;0.68;;;20.00;69.10;;;;;;5095603;28;20047;-80
2021/06/15 09:22:56;;;;;;;3.15;0.80;;;20.00;69.30;;;;;;5095625;28;20044;-81
2021/06/15 09:25:23;;;;;;;2.97;0.50;;;19.90;69.30;;;;;;5095679;28;20055;-81
2021/06/15 09:27:53;;;;;;;3.30;0.80;;;19.90;76.10;;;;;;5095431;28;20052;-81
2021/06/15 09:30:21;;;;;;;1.75;0.95;;;19.80;77.40;;;;;;5095553;28;20139;-81
2021/06/15 09:32:48;;;;;;;3.47;1.13;;;19.80;78.40;;;;;;5095526;28;20058;-81
2021/06/15 09:35:16;;;;;;;4.32;1.13;;;19.90;83.40;;;;;;5095478;28;20284;-81
2021/06/15 09:37:44;;;;;;;4.55;0.90;;;19.80;81.90;;;;;;5095686;28;20448;-81
2021/06/15 09:40:13;;;;;;;2.70;1.23;;;19.60;82.70;;;;;;5095126;28;20054;-81
2021/06/15 09:42:56;;;;;;;7.15;1.05;;;19.60;88.30;;;;;;5095187;28;20058;-81
2021/06/15 09:45:24;;;;;;;2.45;1.05;;;19.70;91.60;;;;;;5095218;28;20510;-81
2021/06/15 09:47:51;;;;;;;3.10;1.50;;;19.70;91.30;;;;;;5095148;28;20044;-80
2021/06/15 09:50:23;;;;;;;3.05;1.17;;;19.80;91.90;;;;;;5095015;28;20060;-81
2021/06/15 09:52:50;;;;;;;2.88;0.80;;;20.00;91.30;;;;;;5095062;28;20047;-80
2021/06/15 09:55:17;;;;;;;2.67;1.20;;;20.10;92.00;;;;;;5095414;28;20048;-81
2021/06/15 09:57:48;;;;;;;3.85;1.17;;;20.10;93.50;;;;;;5094974;28;20459;-81
2021/06/15 10:00:17;;;;;;;7.78;0.88;;;20.00;90.10;;;;;;5095157;28;20108;-81
2021/06/15 10:02:48;;;;;;;2.83;1.08;;;20.00;91.60;;;;;;5095178;28;20048;-81
2021/06/15 10:05:39;;;;;;;4.60;1.27;;;19.90;92.90;;;;;;5094942;28;20062;-81
2021/06/15 10:08:07;;;;;;;3.95;1.00;;;19.80;94.00;;;;;;5075102;28;20044;-80
2021/06/15 10:10:35;;;;;;;3.00;1.10;;;19.70;95.40;;;;;;5094978;28;20134;-81
2021/06/15 10:13:02;;;;;;;4.97;1.27;;;19.60;93.40;;;;;;5094765;28;20062;-81
2021/06/15 10:15:31;;;;;;;3.83;1.30;;;19.60;92.70;;;;;;5094997;28;20478;-81
2021/06/15 10:17:58;;;;;;;5.25;1.00;;;19.60;91.60;;;;;;5094666;28;20493;-81
2021/06/15 10:20:26;;;;;;;1.77;1.00;;;19.60;92.30;;;;;;5094423;28;20052;-81
2021/06/15 10:22:53;;;;;;;1.40;0.70;;;19.60;92.00;;;;;;5094680;28;20054;-81
2021/06/15 10:25:22;;;;;;;4.13;1.00;;;19.60;92.20;;;;;;5094406;28;20044;-81
2021/06/15 10:27:50;;;;;;;6.05;1.65;;;19.70;93.40;;;;;;5094589;28;20044;-81
2021/06/15 10:30:28;;;;;;;2.40;1.13;;;19.70;95.10;;;;;;5094663;28;20136;-81
2021/06/15 10:32:57;;;;;;;;;;;19.80;93.80;;;;;;5095200;28;20056;-81
2021/06/15 10:35:34;;;;;;;;;;;19.90;94.20;;;;;;5095102;28;19930;-81
2021/06/15 10:38:01;;;;;;;;;;;20.00;94.60;;;;;;5094970;28;20355;-81
2021/06/15 10:40:41;;;;;;;1.45;1.10;;;20.00;87.90;;;;;;5094715;28;19920;-80
2021/06/15 10:43:26;;;;;;;3.45;2.10;;;19.90;90.90;;;;;;5094417;28;20044;-81
2021/06/15 10:45:55;;;;;;;7.15;1.27;;;19.60;91.90;;;;;;5094561;28;20471;-81
2021/06/15 10:48:41;;;;;;;6.85;1.77;;;19.50;96.40;;;;;;5094434;28;20055;-81
2021/06/15 10:51:26;;;;;;;3.88;1.13;;;19.60;97.10;;;;;;5094364;28;20058;-80
2021/06/15 10:53:53;;;;;;;4.65;1.60;;;19.70;96.10;;;;;;5094430;28;20044;-81
2021/06/15 10:56:22;;;;;;;3.92;1.38;;;19.70;93.60;;;;;;5094529;28;20076;-81
2021/06/15 10:58:58;;;;;;;3.78;1.58;;;19.60;94.90;;;;;;5094309;28;20044;-81
2021/06/15 11:01:26;;;;;;;9.18;2.33;;;19.60;93.00;;;;;;5094259;28;20484;-81
2021/06/15 11:03:55;;;;;;;7.90;2.42;;;19.50;93.60;;;;;;5094259;28;20052;-81
2021/06/15 11:06:23;;;;;;;1.98;1.38;;;19.60;95.20;;;;;;5094203;28;20044;-80
2021/06/15 11:09:18;;;;;;;1.60;1.13;;;19.80;96.30;;;;;;5093972;28;20048;-82
2021/06/15 11:11:46;;;;;;;5.72;1.27;;;19.90;95.80;;;;;;5094427;28;20048;-81
2021/06/15 11:14:16;;;;;;;6.68;1.77;;;20.10;95.60;;;;;;5094169;28;20461;-83
2021/06/15 11:16:45;;;;;;;6.93;1.55;;;20.20;95.80;;;;;;5094600;28;20048;-86
2021/06/15 11:19:33;;;;;;;3.00;1.20;;;20.40;94.60;;;;;;5094252;28;20109;-85
2021/06/15 11:22:01;;;;;;;2.90;1.45;;;20.30;94.10;;;;;;5094554;28;20435;-84
2021/06/15 11:24:29;;;;;;;5.30;1.38;;;20.20;95.60;;;;;;5094287;28;20066;-83
2021/06/15 11:26:57;;;;;;;2.92;1.88;;;20.10;95.70;;;;;;5094085;28;20052;-89
2021/06/15 11:29:30;;;;;;;5.53;1.50;;;19.90;93.90;;;;;;5094363;28;20054;-85
2021/06/15 11:32:18;;;;;;;4.53;1.45;;;19.80;96.80;;;;;;5094311;28;20395;-83
2021/06/15 11:35:18;;;;;;;4.65;2.10;;;19.70;96.40;;;;;;5094131;28;20052;-84
2021/06/15 11:37:47;;;;;;;1.98;1.63;;;19.60;97.30;;;;;;5095215;28;20044;-84
2021/06/15 11:40:22;;;;;;;5.65;2.00;;;19.70;94.60;;;;;;5097593;28;20472;-83
2021/06/15 11:42:50;;;;;;;7.45;2.10;;;19.60;96.50;;;;;;5097585;28;20059;-83
2021/06/15 11:45:30;;;;;;;4.00;2.25;;;19.70;96.00;;;;;;5097888;28;20048;-83
2021/06/15 11:47:59;;;;;;;3.22;1.92;;;19.70;95.80;;;;;;5097530;28;20044;-83
2021/06/15 11:50:28;;;;;;;7.55;2.30;;;19.70;95.90;;;;;;5097304;28;20498;-83
2021/06/15 11:52:57;;;;;;;2.92;1.70;;;19.70;97.60;;;;;;5097268;28;20490;-83
2021/06/15 11:55:26;;;;;;;7.65;2.97;;;19.70;97.60;;;;;;5097451;28;20048;-82
2021/06/15 11:58:05;;;;;;;2.60;2.40;;;19.70;98.20;;;;;;5097305;28;20040;-82
2021/06/15 12:00:32;;;;;;;4.95;2.65;;;19.70;96.80;;;;;;5097281;28;20452;-82
2021/06/15 12:03:03;;;;;;;3.28;2.05;;;19.80;97.60;;;;;;5097525;28;20415;-82
2021/06/15 12:05:32;;;;;;;7.20;2.30;;;19.90;96.70;;;;;;5097130;28;20470;-83
2021/06/15 12:07:59;;;;;;;5.22;1.90;;;20.00;94.80;;;;;;5097116;28;20047;-83
2021/06/15 12:10:27;;;;;;;5.82;2.63;;;20.10;95.30;;;;;;5097295;28;20048;-82
2021/06/15 12:13:05;;;;;;;3.80;2.60;;;20.20;95.10;;;;;;5097487;28;20044;-82
2021/06/15 12:15:53;;;;;;;7.30;2.58;;;20.20;95.70;;;;;;5097040;28;20052;-82
2021/06/15 12:18:37;;;;;;;6.13;2.85;;;20.20;96.90;;;;;;5096889;28;20080;-83
2021/06/15 12:21:08;;;;;;;7.38;1.70;;;20.20;96.60;;;;;;5096885;28;20048;-82
2021/06/15 12:23:37;;;;;;;3.08;1.90;;;20.20;95.40;;;;;;5096844;28;20056;-82
2021/06/15 12:26:15;;;;;;;5.32;2.05;;;20.20;96.70;;;;;;5096752;28;20140;-82
2021/06/15 12:28:43;;;;;;;8.15;2.58;;;20.20;95.70;;;;;;5096601;28;20051;-82
2021/06/15 12:31:12;;;;;;;5.00;2.28;;;20.20;92.80;;;;;;5096770;28;20160;-82
2021/06/15 12:33:39;;;;;;;8.90;1.53;;;20.20;93.20;;;;;;5096663;28;20369;-82
2021/06/15 12:36:09;;;;;;;4.78;1.58;;;20.20;93.60;;;;;;5096555;28;20055;-83
2021/06/15 12:38:36;;;;;;;3.05;1.40;;;20.30;93.70;;;;;;5096477;28;20452;-82
2021/06/15 12:41:06;;;;;;;4.28;1.92;;;20.30;96.20;;;;;;5096502;28;20044;-82
2021/06/15 12:43:33;;;;;;;3.78;2.03;;;20.20;94.10;;;;;;5096844;28;20056;-82
2021/06/15 12:46:08;;;;;;;1.55;1.33;;;20.10;90.90;;;;;;5096900;28;20048;-84
2021/06/15 12:48:43;;;;;;;12.15;3.15;;;20.00;94.10;;;;;;5095696;28;20064;-84
2021/06/15 12:51:13;;;;;;;3.40;1.40;;;19.90;93.70;;;;;;5096805;28;20056;-84
2021/06/15 12:53:41;;;;;;;3.13;1.48;;;19.90;95.00;;;;;;5096204;28;20059;-85
2021/06/15 12:56:22;;;;;;;2.67;1.30;;;19.90;97.60;;;;;;5096307;28;20052;-85
2021/06/15 12:58:50;;;;;;;3.50;1.00;;;20.00;96.90;;;;;;5095946;28;20048;-83
2021/06/15 13:01:18;;;;;;;8.45;1.65;;;20.00;95.80;;;;;;5096167;28;20413;-84
2021/06/15 13:03:49;;;;;;;10.18;1.63;;;20.10;93.00;;;;;;5096253;28;20052;-83
2021/06/15 13:06:18;;;;;;;1.70;1.10;;;20.10;94.30;;;;;;5096191;28;20062;-86
2021/06/15 13:08:46;;;;;;;3.45;1.38;;;20.10;93.90;;;;;;5095970;28;20048;-84
2021/06/15 13:11:17;;;;;;;4.97;1.20;;;20.10;93.90;;;;;;5095799;28;20475;-84
2021/06/15 13:14:02;;;;;;;8.55;1.38;;;20.10;94.50;;;;;;5096084;28;20440;-86